PADL/DLG METAR and TAF weather

Enter ICAO airport designator
Station Type Date Time Source
PADL METAR 2021/09/20 04:56 UTC NOAA

PADL 200456Z 33006KT 10SM CLR 10/02 A2958 RMK AO2 SLP020 T01000022


Station Type Date Time Source
PADL Decoded METAR 2021/09/20 04:56 UTC NOAA

Dillingham, Dillingham Airport, AK, United States (PADL) 59-03N 158-31W 29M
Sep 20, 2021 - 12:56 AM EDT / 2021.09.20 0456 UTC
Wind: from the NNW (330 degrees) at 7 MPH (6 KT):0
Visibility: 10 mile(s):0
Sky conditions: clear
Temperature: 50.0 F (10.0 C)
Dew Point: 36.0 F (2.2 C)
Relative Humidity: 58%
Pressure (altimeter): 29.58 in. Hg (1001 hPa)
ob: PADL 200456Z 33006KT 10SM CLR 10/02 A2958 RMK AO2 SLP020 T01000022
cycle: 5

Station Type Date Time Source
PADL TAF 2021/09/19 18:24 UTC NOAA

TAF PADL 191723Z 1918/2018 36010KT P6SM SKC

Example: see airport list